sensor_id;sensor_type;location;lat;lon;timestamp;temperature;humidity
34522;DHT22;25561;48.888;8.736;2023-04-25T05:31:45;8.10;99.90
34522;DHT22;25561;48.888;8.736;2023-04-25T05:34:49;8.00;99.90
34522;DHT22;25561;48.888;8.736;2023-04-25T05:37:50;8.10;99.90
34522;DHT22;25561;48.888;8.736;2023-04-25T05:40:52;8.20;99.90
34522;DHT22;25561;48.888;8.736;2023-04-25T05:43:54;8.40;99.90
34522;DHT22;25561;48.888;8.736;2023-04-25T05:46:58;8.40;99.90
34522;DHT22;25561;48.888;8.736;2023-04-25T05:50:00;8.40;99.90
34522;DHT22;25561;48.888;8.736;2023-04-25T05:53:03;8.50;99.90
34522;DHT22;25561;48.888;8.736;2023-04-25T05:56:08;8.50;99.90
34522;DHT22;25561;48.888;8.736;2023-04-25T05:59:10;8.50;99.90
34522;DHT22;25561;48.888;8.736;2023-04-25T06:02:12;8.60;99.90
34522;DHT22;25561;48.888;8.736;2023-04-25T06:05:14;8.70;99.90
34522;DHT22;25561;48.888;8.736;2023-04-25T06:08:16;8.70;99.90
34522;DHT22;25561;48.888;8.736;2023-04-25T06:11:19;8.70;99.90
34522;DHT22;25561;48.888;8.736;2023-04-25T06:49:00;7.60;99.90
34522;DHT22;25561;48.888;8.736;2023-04-25T06:52:03;7.90;99.90
34522;DHT22;25561;48.888;8.736;2023-04-25T06:55:05;8.30;99.90
34522;DHT22;25561;48.888;8.736;2023-04-25T06:58:09;8.60;99.90
34522;DHT22;25561;48.888;8.736;2023-04-25T07:01:10;8.60;99.90
34522;DHT22;25561;48.888;8.736;2023-04-25T07:04:13;8.80;99.90
34522;DHT22;25561;48.888;8.736;2023-04-25T07:07:16;9.00;99.90
34522;DHT22;25561;48.888;8.736;2023-04-25T07:10:19;9.00;99.90
34522;DHT22;25561;48.888;8.736;2023-04-25T07:13:23;8.90;99.90
34522;DHT22;25561;48.888;8.736;2023-04-25T07:16:27;8.90;99.90
34522;DHT22;25561;48.888;8.736;2023-04-25T07:19:30;8.90;99.90
34522;DHT22;25561;48.888;8.736;2023-04-25T07:22:33;8.80;99.90
34522;DHT22;25561;48.888;8.736;2023-04-25T07:25:36;8.90;99.90
34522;DHT22;25561;48.888;8.736;2023-04-25T07:28:40;8.90;99.90
34522;DHT22;25561;48.888;8.736;2023-04-25T07:31:42;8.70;99.90
34522;DHT22;25561;48.888;8.736;2023-04-25T07:34:44;8.90;99.90
34522;DHT22;25561;48.888;8.736;2023-04-25T07:37:46;9.00;99.90
34522;DHT22;25561;48.888;8.736;2023-04-25T07:40:49;9.10;99.90
34522;DHT22;25561;48.888;8.736;2023-04-25T07:43:54;9.10;99.90
34522;DHT22;25561;48.888;8.736;2023-04-25T07:46:59;9.00;99.90
34522;DHT22;25561;48.888;8.736;2023-04-25T07:50:03;9.20;99.90
34522;DHT22;25561;48.888;8.736;2023-04-25T07:53:05;9.20;99.90
34522;DHT22;25561;48.888;8.736;2023-04-25T07:56:08;9.20;99.90
34522;DHT22;25561;48.888;8.736;2023-04-25T07:59:11;9.10;99.90
34522;DHT22;25561;48.888;8.736;2023-04-25T08:02:14;9.20;99.90
34522;DHT22;25561;48.888;8.736;2023-04-25T08:05:16;9.20;99.90
34522;DHT22;25561;48.888;8.736;2023-04-25T08:08:23;8.90;99.90
34522;DHT22;25561;48.888;8.736;2023-04-25T08:11:26;8.40;99.90
34522;DHT22;25561;48.888;8.736;2023-04-25T08:14:28;8.30;99.90
34522;DHT22;25561;48.888;8.736;2023-04-25T08:17:33;8.30;99.90
34522;DHT22;25561;48.888;8.736;2023-04-25T08:20:36;8.20;99.90
34522;DHT22;25561;48.888;8.736;2023-04-25T08:23:38;8.20;99.90
34522;DHT22;25561;48.888;8.736;2023-04-25T08:26:42;8.20;99.90
34522;DHT22;25561;48.888;8.736;2023-04-25T08:29:45;8.20;99.90
34522;DHT22;25561;48.888;8.736;2023-04-25T08:32:49;8.00;99.90
34522;DHT22;25561;48.888;8.736;2023-04-25T08:35:52;8.20;99.90
34522;DHT22;25561;48.888;8.736;2023-04-25T08:38:54;8.10;99.90
34522;DHT22;25561;48.888;8.736;2023-04-25T08:42:03;8.20;99.90
34522;DHT22;25561;48.888;8.736;2023-04-25T08:45:09;8.00;99.90
34522;DHT22;25561;48.888;8.736;2023-04-25T08:48:14;8.20;99.90
34522;DHT22;25561;48.888;8.736;2023-04-25T08:51:27;8.30;99.90
34522;DHT22;25561;48.888;8.736;2023-04-25T08:54:33;8.20;99.90
34522;DHT22;25561;48.888;8.736;2023-04-25T08:57:40;8.20;99.90
34522;DHT22;25561;48.888;8.736;2023-04-25T09:00:50;8.40;99.90
34522;DHT22;25561;48.888;8.736;2023-04-25T09:03:52;8.40;99.90
34522;DHT22;25561;48.888;8.736;2023-04-25T09:06:56;8.40;99.90
34522;DHT22;25561;48.888;8.736;2023-04-25T09:10:01;8.50;99.90
34522;DHT22;25561;48.888;8.736;2023-04-25T09:13:05;8.30;99.90
34522;DHT22;25561;48.888;8.736;2023-04-25T09:16:08;8.30;99.90
34522;DHT22;25561;48.888;8.736;2023-04-25T09:19:24;8.10;99.90
34522;DHT22;25561;48.888;8.736;2023-04-25T09:22:41;8.10;99.90
34522;DHT22;25561;48.888;8.736;2023-04-25T09:25:44;8.10;99.90
34522;DHT22;25561;48.888;8.736;2023-04-25T09:28:48;8.50;99.90
34522;DHT22;25561;48.888;8.736;2023-04-25T09:31:50;8.40;99.90
34522;DHT22;25561;48.888;8.736;2023-04-25T09:34:54;8.30;99.90
34522;DHT22;25561;48.888;8.736;2023-04-25T09:37:56;8.20;99.90
34522;DHT22;25561;48.888;8.736;2023-04-25T09:40:59;8.20;99.90
34522;DHT22;25561;48.888;8.736;2023-04-25T09:44:03;8.50;99.90
34522;DHT22;25561;48.888;8.736;2023-04-25T09:47:10;8.50;99.90
34522;DHT22;25561;48.888;8.736;2023-04-25T09:50:16;8.50;99.90
34522;DHT22;25561;48.888;8.736;2023-04-25T09:53:20;8.60;99.90
34522;DHT22;25561;48.888;8.736;2023-04-25T09:56:23;8.40;99.90
34522;DHT22;25561;48.888;8.736;2023-04-25T09:59:27;8.50;99.90
34522;DHT22;25561;48.888;8.736;2023-04-25T10:02:34;8.40;99.90
34522;DHT22;25561;48.888;8.736;2023-04-25T10:05:39;8.30;99.90
34522;DHT22;25561;48.888;8.736;2023-04-25T10:08:43;8.00;99.90
34522;DHT22;25561;48.888;8.736;2023-04-25T10:11:47;7.80;99.90
34522;DHT22;25561;48.888;8.736;2023-04-25T10:14:52;7.70;99.90
34522;DHT22;25561;48.888;8.736;2023-04-25T10:17:56;7.50;99.90
34522;DHT22;25561;48.888;8.736;2023-04-25T10:21:01;7.40;99.90
34522;DHT22;25561;48.888;8.736;2023-04-25T10:24:04;7.50;99.90
34522;DHT22;25561;48.888;8.736;2023-04-25T10:27:06;7.80;99.90
34522;DHT22;25561;48.888;8.736;2023-04-25T10:30:10;7.70;99.90
34522;DHT22;25561;48.888;8.736;2023-04-25T10:33:17;7.80;99.90
34522;DHT22;25561;48.888;8.736;2023-04-25T10:36:23;8.00;99.90
34522;DHT22;25561;48.888;8.736;2023-04-25T10:39:27;8.10;99.90
34522;DHT22;25561;48.888;8.736;2023-04-25T10:42:29;8.00;99.90
34522;DHT22;25561;48.888;8.736;2023-04-25T10:45:51;8.00;99.90
34522;DHT22;25561;48.888;8.736;2023-04-25T10:48:55;7.70;99.90
34522;DHT22;25561;48.888;8.736;2023-04-25T10:55:25;7.70;99.90
34522;DHT22;25561;48.888;8.736;2023-04-25T10:58:27;7.60;99.90
34522;DHT22;25561;48.888;8.736;2023-04-25T11:04:44;7.70;99.90
34522;DHT22;25561;48.888;8.736;2023-04-25T11:07:53;7.40;99.90
34522;DHT22;25561;48.888;8.736;2023-04-25T11:11:02;7.50;99.90
34522;DHT22;25561;48.888;8.736;2023-04-25T11:14:04;7.60;99.90
34522;DHT22;25561;48.888;8.736;2023-04-25T11:17:06;7.60;99.90
34522;DHT22;25561;48.888;8.736;2023-04-25T11:20:08;7.70;99.90
34522;DHT22;25561;48.888;8.736;2023-04-25T11:23:13;7.80;99.90
34522;DHT22;25561;48.888;8.736;2023-04-25T11:26:14;8.00;99.90
34522;DHT22;25561;48.888;8.736;2023-04-25T11:29:17;8.40;99.90
34522;DHT22;25561;48.888;8.736;2023-04-25T11:32:18;8.20;99.90
34522;DHT22;25561;48.888;8.736;2023-04-25T11:35:22;8.20;99.90
34522;DHT22;25561;48.888;8.736;2023-04-25T11:38:25;8.50;99.90
34522;DHT22;25561;48.888;8.736;2023-04-25T11:41:30;8.50;99.90
34522;DHT22;25561;48.888;8.736;2023-04-25T11:44:32;8.60;99.90
34522;DHT22;25561;48.888;8.736;2023-04-25T11:47:34;8.70;99.90
34522;DHT22;25561;48.888;8.736;2023-04-25T11:50:41;9.00;99.90
34522;DHT22;25561;48.888;8.736;2023-04-25T11:53:47;9.20;99.90
34522;DHT22;25561;48.888;8.736;2023-04-25T11:56:49;9.40;99.90
34522;DHT22;25561;48.888;8.736;2023-04-25T11:59:52;9.70;99.90
34522;DHT22;25561;48.888;8.736;2023-04-25T12:02:55;9.90;99.90
34522;DHT22;25561;48.888;8.736;2023-04-25T12:06:03;10.70;99.90
34522;DHT22;25561;48.888;8.736;2023-04-25T12:09:11;10.90;99.90
34522;DHT22;25561;48.888;8.736;2023-04-25T12:12:13;10.80;99.90
34522;DHT22;25561;48.888;8.736;2023-04-25T12:15:17;10.60;99.90
34522;DHT22;25561;48.888;8.736;2023-04-25T12:18:23;10.90;99.90
34522;DHT22;25561;48.888;8.736;2023-04-25T12:21:28;10.60;99.90
34522;DHT22;25561;48.888;8.736;2023-04-25T12:24:33;9.60;99.90
34522;DHT22;25561;48.888;8.736;2023-04-25T12:27:40;9.00;99.90
34522;DHT22;25561;48.888;8.736;2023-04-25T12:31:06;9.20;99.90
34522;DHT22;25561;48.888;8.736;2023-04-25T12:34:08;9.40;99.90
34522;DHT22;25561;48.888;8.736;2023-04-25T12:37:10;9.90;99.90
34522;DHT22;25561;48.888;8.736;2023-04-25T12:40:12;10.00;99.90
34522;DHT22;25561;48.888;8.736;2023-04-25T12:43:14;9.90;99.90
34522;DHT22;25561;48.888;8.736;2023-04-25T12:46:16;9.80;99.90
34522;DHT22;25561;48.888;8.736;2023-04-25T12:49:18;9.60;99.90
34522;DHT22;25561;48.888;8.736;2023-04-25T12:52:20;10.00;99.90
34522;DHT22;25561;48.888;8.736;2023-04-25T12:55:22;10.30;99.90
34522;DHT22;25561;48.888;8.736;2023-04-25T12:58:24;10.10;99.90
34522;DHT22;25561;48.888;8.736;2023-04-25T13:01:26;9.90;99.90
34522;DHT22;25561;48.888;8.736;2023-04-25T13:04:28;9.60;99.90
34522;DHT22;25561;48.888;8.736;2023-04-25T13:07:30;9.60;99.90
34522;DHT22;25561;48.888;8.736;2023-04-25T13:10:35;9.70;99.90
34522;DHT22;25561;48.888;8.736;2023-04-25T13:13:38;9.90;99.90
34522;DHT22;25561;48.888;8.736;2023-04-25T13:16:41;10.10;99.90
34522;DHT22;25561;48.888;8.736;2023-04-25T13:19:43;10.40;99.90
34522;DHT22;25561;48.888;8.736;2023-04-25T13:22:45;10.80;99.90
34522;DHT22;25561;48.888;8.736;2023-04-25T13:25:47;10.80;99.90
34522;DHT22;25561;48.888;8.736;2023-04-25T13:28:49;10.60;99.90
34522;DHT22;25561;48.888;8.736;2023-04-25T13:31:51;10.60;99.90
34522;DHT22;25561;48.888;8.736;2023-04-25T13:34:53;10.60;99.90
34522;DHT22;25561;48.888;8.736;2023-04-25T13:37:54;10.80;99.90
34522;DHT22;25561;48.888;8.736;2023-04-25T13:40:56;10.90;99.90
34522;DHT22;25561;48.888;8.736;2023-04-25T13:43:58;10.80;99.90
34522;DHT22;25561;48.888;8.736;2023-04-25T13:47:01;10.80;99.90
34522;DHT22;25561;48.888;8.736;2023-04-25T13:50:04;10.60;99.90
34522;DHT22;25561;48.888;8.736;2023-04-25T13:53:07;11.00;99.90
34522;DHT22;25561;48.888;8.736;2023-04-25T13:56:09;11.40;99.90
34522;DHT22;25561;48.888;8.736;2023-04-25T13:59:13;11.70;99.90
34522;DHT22;25561;48.888;8.736;2023-04-25T14:02:14;11.80;99.90
34522;DHT22;25561;48.888;8.736;2023-04-25T14:05:16;11.50;99.90
34522;DHT22;25561;48.888;8.736;2023-04-25T14:08:18;11.20;99.90
34522;DHT22;25561;48.888;8.736;2023-04-25T14:11:20;11.30;99.90
34522;DHT22;25561;48.888;8.736;2023-04-25T14:14:22;11.20;99.90
34522;DHT22;25561;48.888;8.736;2023-04-25T14:17:24;11.40;99.90
34522;DHT22;25561;48.888;8.736;2023-04-25T14:20:27;10.90;99.90
34522;DHT22;25561;48.888;8.736;2023-04-25T14:23:29;11.00;99.90
34522;DHT22;25561;48.888;8.736;2023-04-25T14:26:31;11.00;99.90
34522;DHT22;25561;48.888;8.736;2023-04-25T14:29:33;11.40;99.90
34522;DHT22;25561;48.888;8.736;2023-04-25T14:32:35;11.60;99.90
34522;DHT22;25561;48.888;8.736;2023-04-25T14:35:37;11.40;99.90
34522;DHT22;25561;48.888;8.736;2023-04-25T14:38:39;11.20;99.90
34522;DHT22;25561;48.888;8.736;2023-04-25T14:41:41;11.50;99.90
34522;DHT22;25561;48.888;8.736;2023-04-25T14:44:43;11.70;99.90
34522;DHT22;25561;48.888;8.736;2023-04-25T14:47:45;11.40;99.90
34522;DHT22;25561;48.888;8.736;2023-04-25T14:50:47;11.00;99.90
34522;DHT22;25561;48.888;8.736;2023-04-25T14:53:49;11.30;99.90
34522;DHT22;25561;48.888;8.736;2023-04-25T14:56:53;11.00;99.90
34522;DHT22;25561;48.888;8.736;2023-04-25T14:59:54;10.80;99.90
34522;DHT22;25561;48.888;8.736;2023-04-25T15:02:57;10.90;99.90
34522;DHT22;25561;48.888;8.736;2023-04-25T15:05:59;10.60;99.90
34522;DHT22;25561;48.888;8.736;2023-04-25T15:09:01;10.40;99.90
34522;DHT22;25561;48.888;8.736;2023-04-25T15:12:03;10.30;99.90
34522;DHT22;25561;48.888;8.736;2023-04-25T15:15:06;10.60;99.90
34522;DHT22;25561;48.888;8.736;2023-04-25T15:18:08;10.90;99.90
34522;DHT22;25561;48.888;8.736;2023-04-25T15:21:09;11.10;99.90
34522;DHT22;25561;48.888;8.736;2023-04-25T15:24:11;10.80;99.90
34522;DHT22;25561;48.888;8.736;2023-04-25T15:27:15;10.80;99.90
34522;DHT22;25561;48.888;8.736;2023-04-25T15:30:18;11.00;99.90
34522;DHT22;25561;48.888;8.736;2023-04-25T15:33:21;11.40;99.90
34522;DHT22;25561;48.888;8.736;2023-04-25T15:36:22;11.50;99.90
34522;DHT22;25561;48.888;8.736;2023-04-25T15:39:24;11.40;99.90
34522;DHT22;25561;48.888;8.736;2023-04-25T15:42:26;11.40;99.90
34522;DHT22;25561;48.888;8.736;2023-04-25T15:45:29;11.50;99.90
34522;DHT22;25561;48.888;8.736;2023-04-25T15:48:32;11.70;99.90
34522;DHT22;25561;48.888;8.736;2023-04-25T15:51:34;11.70;99.90
34522;DHT22;25561;48.888;8.736;2023-04-25T15:54:36;11.70;99.90
34522;DHT22;25561;48.888;8.736;2023-04-25T15:57:38;11.50;99.90
